Time;durP1;ratioP1;P1;durP2;ratioP2;P2;SDS_P1;SDS_P2;PMS_P1;PMS_P2;Temp;Humidity;BMP_temperature;BMP_pressure;BME280_temperature;BME280_humidity;BME280_pressure;Samples;Min_cycle;Max_cycle;Signal;HPM_P1;HPM_P2
2023/09/24 00:01:55;;;;;;;;;;;;;;;;;;6282725;28;19905;-87
2023/09/24 00:04:55;;;;;;;;;;;;;;;;;;6282493;28;19905;-87
2023/09/24 00:07:56;;;;;;;;;;;;;;;;;;6299941;28;19962;-87
2023/09/24 00:10:56;;;;;;;;;;;;;;;;;;6300272;28;19958;-87
2023/09/24 00:13:56;;;;;;;;;;;;;;;;;;6281667;28;20333;-87
2023/09/24 00:16:58;;;;;;;;;;;;;;;;;;6300468;28;19909;-87
2023/09/24 00:19:58;;;;;;;;;;;;;;;;;;6299450;28;19904;-86
2023/09/24 00:22:59;;;;;;;;;;;;;;;;;;6299363;28;20389;-87
2023/09/24 00:25:59;;;;;;;;;;;;;;;;;;6299799;28;20352;-86
2023/09/24 00:28:59;;;;;;;;;;;;;;;;;;6299120;28;19951;-87
2023/09/24 00:32:00;;;;;;;;;;;;;;;;;;6299661;28;19968;-87
2023/09/24 00:35:00;;;;;;;;;;;;;;;;;;6281240;28;19940;-87
2023/09/24 00:38:00;;;;;;;;;;;;;;;;;;6281396;28;19931;-86
2023/09/24 00:41:00;;;;;;;;;;;;;;;;;;6281299;28;20385;-86
2023/09/24 00:44:01;;;;;;;;;;;;;;;;;;6280368;28;20046;-87
2023/09/24 00:47:01;;;;;;;;;;;;;;;;;;6281280;28;20427;-86
2023/09/24 00:50:01;;;;;;;;;;;;;;;;;;6281428;28;20325;-86
2023/09/24 00:53:02;;;;;;;;;;;;;;;;;;6299574;28;19954;-86
2023/09/24 00:56:04;;;;;;;;;;;;;;;;;;6299016;28;19908;-86
2023/09/24 00:59:06;;;;;;;;;;;;;;;;;;6281303;28;19983;-86
2023/09/24 01:02:07;;;;;;;;;;;;;;;;;;6298715;28;20301;-86
2023/09/24 01:05:08;;;;;;;;;;;;;;;;;;6299375;28;19943;-86
2023/09/24 01:08:09;;;;;;;;;;;;;;;;;;6298517;28;19916;-86
2023/09/24 01:11:10;;;;;;;;;;;;;;;;;;6298943;28;19954;-85
2023/09/24 01:14:10;;;;;;;;;;;;;;;;;;6280770;28;19912;-86
2023/09/24 01:17:11;;;;;;;;;;;;;;;;;;6280705;28;19905;-86
2023/09/24 01:20:14;;;;;;;;;;;;;;;;;;6298245;28;20374;-86
2023/09/24 01:23:14;;;;;;;;;;;;;;;;;;6298821;28;19905;-86
2023/09/24 01:26:14;;;;;;;;;;;;;;;;;;6280152;28;20003;-86
2023/09/24 01:29:15;;;;;;;;;;;;;;;;;;6298499;28;20278;-87
2023/09/24 01:32:15;;;;;;;;;;;;;;;;;;6298087;28;20372;-87
2023/09/24 01:35:15;;;;;;;;;;;;;;;;;;6298081;28;19908;-88
2023/09/24 01:38:16;;;;;;;;;;;;;;;;;;6298812;28;19911;-87
2023/09/24 01:41:16;;;;;;;;;;;;;;;;;;6298229;28;19904;-88
2023/09/24 01:44:16;;;;;;;;;;;;;;;;;;6298678;28;19904;-86
2023/09/24 01:47:16;;;;;;;;;;;;;;;;;;6280517;28;19910;-86
2023/09/24 01:50:17;;;;;;;;;;;;;;;;;;6279891;28;19905;-87
2023/09/24 01:53:17;;;;;;;;;;;;;;;;;;6298020;28;19904;-87
2023/09/24 01:56:21;;;;;;;;;;;;;;;;;;6297886;28;19904;-87
2023/09/24 01:59:21;;;;;;;;;;;;;;;;;;6279881;28;19904;-86
2023/09/24 02:02:23;;;;;;;;;;;;;;;;;;6297937;28;20373;-87
2023/09/24 02:05:23;;;;;;;;;;;;;;;;;;6280167;28;19905;-87
2023/09/24 02:08:23;;;;;;;;;;;;;;;;;;6279605;28;20362;-86
2023/09/24 02:11:23;;;;;;;;;;;;;;;;;;6297849;28;19912;-86
2023/09/24 02:14:23;;;;;;;;;;;;;;;;;;6297951;28;19908;-87
2023/09/24 02:17:23;;;;;;;;;;;;;;;;;;6298871;28;19904;-85
2023/09/24 02:20:24;;;;;;;;;;;;;;;;;;6298798;28;19905;-86
2023/09/24 02:23:24;;;;;;;;;;;;;;;;;;6298470;28;19912;-84
2023/09/24 02:26:24;;;;;;;;;;;;;;;;;;6298303;28;19920;-85
2023/09/24 02:29:24;;;;;;;;;;;;;;;;;;6280686;28;19919;-86
2023/09/24 02:32:25;;;;;;;;;;;;;;;;;;6298390;28;20009;-84
2023/09/24 02:35:25;;;;;;;;;;;;;;;;;;6280781;28;19995;-84
2023/09/24 02:38:26;;;;;;;;;;;;;;;;;;6280328;28;19904;-85
2023/09/24 02:41:26;;;;;;;;;;;;;;;;;;6280221;28;19983;-85
2023/09/24 02:44:26;;;;;;;;;;;;;;;;;;6280218;28;19908;-84
2023/09/24 02:47:27;;;;;;;;;;;;;;;;;;6299935;28;19904;-85
2023/09/24 02:50:28;;;;;;;;;;;;;;;;;;6282133;28;19966;-85
2023/09/24 02:53:28;;;;;;;;;;;;;;;;;;6300739;28;19904;-86
2023/09/24 02:56:28;;;;;;;;;;;;;;;;;;6306699;28;19911;-87
2023/09/24 02:59:29;;;;;;;;;;;;;;;;;;6309286;28;19952;-87
2023/09/24 03:02:29;;;;;;;;;;;;;;;;;;6306811;28;19904;-87
2023/09/24 03:05:31;;;;;;;;;;;;;;;;;;6314689;28;19912;-87
2023/09/24 03:08:32;;;;;;;;;;;;;;;;;;6326247;28;19916;-86
2023/09/24 03:11:32;;;;;;;;;;;;;;;;;;6327080;28;19905;-86
2023/09/24 03:14:36;;;;;;;;;;;;;;;;;;6330723;28;19909;-86
2023/09/24 03:17:36;;;;;;;;;;;;;;;;;;6302306;28;19904;-87
2023/09/24 03:20:36;;;;;;;;;;;;;;;;;;6311324;28;19905;-87
2023/09/24 03:23:36;;;;;;;;;;;;;;;;;;6308998;28;19911;-87
2023/09/24 03:26:37;;;;;;;;;;;;;;;;;;6307761;28;19904;-87
2023/09/24 03:29:37;;;;;;;;;;;;;;;;;;6289002;28;20324;-87
2023/09/24 03:32:37;;;;;;;;;;;;;;;;;;6306525;28;19904;-87
2023/09/24 03:35:37;;;;;;;;;;;;;;;;;;6286354;28;19988;-87
2023/09/24 03:38:37;;;;;;;;;;;;;;;;;;6285565;28;19904;-87
2023/09/24 03:41:37;;;;;;;;;;;;;;;;;;6286233;28;19905;-87
2023/09/24 03:44:38;;;;;;;;;;;;;;;;;;6303399;28;19904;-87
2023/09/24 03:47:38;;;;;;;;;;;;;;;;;;6302423;28;19911;-86
2023/09/24 03:50:39;;;;;;;;;;;;;;;;;;6302650;28;19909;-86
2023/09/24 03:53:39;;;;;;;;;;;;;;;;;;6284850;28;19928;-86
2023/09/24 03:56:40;;;;;;;;;;;;;;;;;;6285899;28;19908;-85
2023/09/24 03:59:40;;;;;;;;;;;;;;;;;;6289245;28;19911;-85
2023/09/24 04:02:40;;;;;;;;;;;;;;;;;;6289325;28;19962;-85
2023/09/24 04:05:40;;;;;;;;;;;;;;;;;;6289685;28;19947;-85
2023/09/24 04:08:40;;;;;;;;;;;;;;;;;;6303872;28;19928;-87
2023/09/24 04:11:41;;;;;;;;;;;;;;;;;;6284956;28;19904;-86
2023/09/24 04:14:41;;;;;;;;;;;;;;;;;;6284334;28;19908;-88
2023/09/24 04:17:41;;;;;;;;;;;;;;;;;;6283539;28;19991;-87
2023/09/24 04:20:41;;;;;;;;;;;;;;;;;;6282714;28;19905;-87
2023/09/24 04:23:42;;;;;;;;;;;;;;;;;;6300477;28;19991;-87
2023/09/24 04:26:45;;;;;;;;;;;;;;;;;;6300867;28;19954;-87
2023/09/24 04:29:46;;;;;;;;;;;;;;;;;;6282206;28;19919;-87
2023/09/24 04:32:51;;;;;;;;;;;;;;;;;;6300065;28;19904;-87
2023/09/24 04:35:51;;;;;;;;;;;;;;;;;;6299764;28;19915;-87
2023/09/24 04:38:52;;;;;;;;;;;;;;;;;;6299896;28;19904;-87
2023/09/24 04:41:54;;;;;;;;;;;;;;;;;;6299682;28;19908;-87
2023/09/24 04:44:54;;;;;;;;;;;;;;;;;;6300510;28;19924;-88
2023/09/24 04:47:54;;;;;;;;;;;;;;;;;;6282180;28;19909;-87
2023/09/24 04:50:54;;;;;;;;;;;;;;;;;;6300253;28;19911;-87
2023/09/24 04:53:54;;;;;;;;;;;;;;;;;;6299871;28;19912;-87
2023/09/24 04:56:55;;;;;;;;;;;;;;;;;;6281672;28;19905;-87
2023/09/24 04:59:55;;;;;;;;;;;;;;;;;;6299922;28;19967;-87
2023/09/24 05:02:55;;;;;;;;;;;;;;;;;;6299615;28;20370;-87
2023/09/24 05:05:55;;;;;;;;;;;;;;;;;;6299393;28;19983;-86
2023/09/24 05:08:56;;;;;;;;;;;;;;;;;;6281099;28;19943;-86
2023/09/24 05:11:56;;;;;;;;;;;;;;;;;;6299301;28;19954;-86
2023/09/24 05:14:57;;;;;;;;;;;;;;;;;;6298781;28;19909;-86
2023/09/24 05:17:57;;;;;;;;;;;;;;;;;;6298599;28;19904;-87
2023/09/24 05:20:57;;;;;;;;;;;;;;;;;;6298719;28;19911;-87
2023/09/24 05:23:57;;;;;;;;;;;;;;;;;;6280829;28;20248;-87
2023/09/24 05:26:58;;;;;;;;;;;;;;;;;;6280522;28;19927;-87
2023/09/24 05:29:58;;;;;;;;;;;;;;;;;;6298457;28;20370;-87
2023/09/24 05:32:59;;;;;;;;;;;;;;;;;;6281171;28;19905;-87
2023/09/24 05:36:00;;;;;;;;;;;;;;;;;;6280652;28;19927;-87
2023/09/24 05:39:00;;;;;;;;;;;;;;;;;;6298765;28;19908;-87
2023/09/24 05:42:00;;;;;;;;;;;;;;;;;;6298243;28;19924;-86
2023/09/24 05:45:00;;;;;;;;;;;;;;;;;;6281179;28;19904;-87
2023/09/24 05:48:00;;;;;;;;;;;;;;;;;;6297894;28;19908;-87
2023/09/24 05:51:00;;;;;;;;;;;;;;;;;;6299018;28;19951;-86
2023/09/24 05:54:00;;;;;;;;;;;;;;;;;;6279785;28;19908;-87
2023/09/24 05:57:01;;;;;;;;;;;;;;;;;;6298586;28;19995;-88
2023/09/24 06:00:04;;;;;;;;;;;;;;;;;;6297891;28;19904;-88
2023/09/24 06:03:04;;;;;;;;;;;;;;;;;;6279904;28;19904;-86
2023/09/24 06:06:04;;;;;;;;;;;;;;;;;;6279810;28;19912;-87
2023/09/24 06:09:09;;;;;;;;;;;;;;;;;;6297990;28;19975;-88
2023/09/24 06:12:09;;;;;;;;;;;;;;;;;;6279773;28;20003;-88
2023/09/24 06:15:10;;;;;;;;;;;;;;;;;;6297589;28;19973;-88
2023/09/24 06:18:12;;;;;;;;;;;;;;;;;;6280181;28;19904;-86
2023/09/24 06:21:12;;;;;;;;;;;;;;;;;;6297926;28;19905;-87
2023/09/24 06:24:12;;;;;;;;;;;;;;;;;;6297337;28;20285;-86
2023/09/24 06:27:13;;;;;;;;;;;;;;;;;;6279433;28;19912;-88
2023/09/24 06:30:14;;;;;;;;;;;;;;;;;;6298096;28;19904;-88
2023/09/24 06:33:15;;;;;;;;;;;;;;;;;;6279510;28;19958;-88
2023/09/24 06:36:15;;;;;;;;;;;;;;;;;;6298352;28;19908;-88
2023/09/24 06:39:15;;;;;;;;;;;;;;;;;;6297542;28;20282;-86
2023/09/24 06:42:15;;;;;;;;;;;;;;;;;;6300858;28;20278;-88
2023/09/24 06:45:15;;;;;;;;;;;;;;;;;;6283953;28;19968;-88
2023/09/24 06:48:16;;;;;;;;;;;;;;;;;;6283669;28;20267;-88
2023/09/24 06:51:16;;;;;;;;;;;;;;;;;;6301620;28;19931;-88
2023/09/24 06:54:16;;;;;;;;;;;;;;;;;;6301461;28;19954;-88
2023/09/24 06:57:18;;;;;;;;;;;;;;;;;;6301568;28;19904;-88
2023/09/24 07:00:18;;;;;;;;;;;;;;;;;;6301465;28;19904;-88
2023/09/24 07:03:18;;;;;;;;;;;;;;;;;;6283398;28;19915;-88
2023/09/24 07:06:18;;;;;;;;;;;;;;;;;;6301743;28;19904;-90
2023/09/24 07:09:18;;;;;;;;;;;;;;;;;;6301024;28;20281;-90
2023/09/24 07:12:19;;;;;;;;;;;;;;;;;;6283032;28;20317;-90
2023/09/24 07:15:19;;;;;;;;;;;;;;;;;;6301229;28;19912;-90
2023/09/24 07:18:19;;;;;;;;;;;;;;;;;;6301463;28;19954;-90
2023/09/24 07:21:19;;;;;;;;;;;;;;;;;;6283041;28;19908;-91
2023/09/24 07:24:19;;;;;;;;;;;;;;;;;;6301370;28;19909;-90
2023/09/24 07:27:19;;;;;;;;;;;;;;;;;;6301112;28;19908;-90
2023/09/24 07:30:20;;;;;;;;;;;;;;;;;;6301125;28;19947;-90
2023/09/24 07:33:20;;;;;;;;;;;;;;;;;;6301245;28;19954;-90
2023/09/24 07:36:20;;;;;;;;;;;;;;;;;;6300913;28;19913;-89
2023/09/24 07:39:20;;;;;;;;;;;;;;;;;;6284128;28;19996;-89
2023/09/24 07:42:21;;;;;;;;;;;;;;;;;;6300660;28;20278;-90
2023/09/24 07:45:22;;;;;;;;;;;;;;;;;;6301022;28;19940;-90
2023/09/24 07:48:22;;;;;;;;;;;;;;;;;;6300966;28;19912;-89
2023/09/24 07:51:22;;;;;;;;;;;;;;;;;;6300579;28;19904;-89
2023/09/24 07:54:22;;;;;;;;;;;;;;;;;;6282430;28;19916;-90
2023/09/24 07:57:22;;;;;;;;;;;;;;;;;;6283105;28;19904;-92
2023/09/24 08:00:23;;;;;;;;;;;;;;;;;;6282364;28;19924;-90
2023/09/24 08:03:23;;;;;;;;;;;;;;;;;;6300311;28;19905;-89
2023/09/24 08:06:23;;;;;;;;;;;;;;;;;;6300235;28;19911;-90
2023/09/24 08:09:23;;;;;;;;;;;;;;;;;;6301051;28;19916;-89
2023/09/24 08:12:23;;;;;;;;;;;;;;;;;;6300663;28;19927;-90
2023/09/24 08:15:24;;;;;;;;;;;;;;;;;;6282422;28;20321;-91
2023/09/24 08:18:24;;;;;;;;;;;;;;;;;;6281841;28;19904;-91
2023/09/24 08:21:24;;;;;;;;;;;;;;;;;;6282174;28;19958;-90
2023/09/24 08:24:24;;;;;;;;;;;;;;;;;;6299777;28;20299;-90
2023/09/24 08:27:24;;;;;;;;;;;;;;;;;;6281747;28;19912;-91
2023/09/24 08:30:25;;;;;;;;;;;;;;;;;;6281652;28;19910;-91
2023/09/24 08:33:25;;;;;;;;;;;;;;;;;;6300074;28;19908;-91
2023/09/24 08:36:25;;;;;;;;;;;;;;;;;;6299859;28;19905;-86
2023/09/24 08:39:26;;;;;;;;;;;;;;;;;;6299340;28;19904;-86
2023/09/24 08:42:26;;;;;;;;;;;;;;;;;;6281594;28;20007;-86
2023/09/24 08:45:28;;;;;;;;;;;;;;;;;;6281300;28;19904;-86
2023/09/24 08:48:28;;;;;;;;;;;;;;;;;;6299958;28;19908;-91
2023/09/24 08:51:28;;;;;;;;;;;;;;;;;;6299130;28;20369;-90
2023/09/24 08:54:29;;;;;;;;;;;;;;;;;;6299656;28;19909;-92
2023/09/24 08:57:30;;;;;;;;;;;;;;;;;;6299252;28;19959;-91
2023/09/24 09:00:30;;;;;;;;;;;;;;;;;;6299324;28;19915;-91
2023/09/24 09:03:30;;;;;;;;;;;;;;;;;;6298850;28;19930;-91
2023/09/24 09:06:31;;;;;;;;;;;;;;;;;;6298938;28;19908;-91
2023/09/24 09:09:31;;;;;;;;;;;;;;;;;;6298898;28;20334;-90
2023/09/24 09:12:31;;;;;;;;;;;;;;;;;;6282840;28;19966;-89
2023/09/24 09:15:32;;;;;;;;;;;;;;;;;;6305394;28;19912;-89
2023/09/24 09:18:35;;;;;;;;;;;;;;;;;;6303752;28;19905;-90
2023/09/24 09:21:35;;;;;;;;;;;;;;;;;;6286896;28;19983;-90
2023/09/24 09:24:35;;;;;;;;;;;;;;;;;;6303837;28;19910;-90
2023/09/24 09:27:35;;;;;;;;;;;;;;;;;;6302621;28;19958;-89
2023/09/24 09:30:35;;;;;;;;;;;;;;;;;;6301898;28;19904;-90
2023/09/24 09:33:35;;;;;;;;;;;;;;;;;;6282629;28;20370;-90
2023/09/24 09:36:36;;;;;;;;;;;;;;;;;;6302111;28;19904;-90
2023/09/24 09:39:36;;;;;;;;;;;;;;;;;;6305707;28;19908;-90
2023/09/24 09:42:36;;;;;;;;;;;;;;;;;;6303042;28;19905;-91
2023/09/24 09:45:36;;;;;;;;;;;;;;;;;;6286516;28;19915;-89
2023/09/24 09:48:36;;;;;;;;;;;;;;;;;;6299470;28;20058;-85
2023/09/24 09:51:36;;;;;;;;;;;;;;;;;;6297831;28;19908;-85
2023/09/24 09:54:36;;;;;;;;;;;;;;;;;;6298318;28;19947;-86
2023/09/24 09:57:37;;;;;;;;;;;;;;;;;;6300002;28;19942;-91
2023/09/24 10:00:37;;;;;;;;;;;;;;;;;;6300387;28;19927;-90
2023/09/24 10:03:38;;;;;;;;;;;;;;;;;;6285161;28;19905;-90
2023/09/24 10:06:39;;;;;;;;;;;;;;;;;;6306088;28;19908;-91
2023/09/24 10:09:40;;;;;;;;;;;;;;;;;;6282770;28;19932;-90
2023/09/24 10:12:41;;;;;;;;;;;;;;;;;;6279874;28;19923;-91
2023/09/24 10:15:43;;;;;;;;;;;;;;;;;;6301119;28;19948;-92
2023/09/24 10:18:43;;;;;;;;;;;;;;;;;;6303679;28;19904;-92
2023/09/24 10:21:44;;;;;;;;;;;;;;;;;;6303136;28;19904;-92
2023/09/24 10:24:44;;;;;;;;;;;;;;;;;;6303300;28;20256;-91
2023/09/24 10:27:44;;;;;;;;;;;;;;;;;;6302811;28;20251;-91
2023/09/24 10:30:44;;;;;;;;;;;;;;;;;;6302903;28;19919;-92
2023/09/24 10:33:44;;;;;;;;;;;;;;;;;;6302392;28;19908;-91
2023/09/24 10:36:45;;;;;;;;;;;;;;;;;;6302953;28;19904;-92
2023/09/24 10:39:45;;;;;;;;;;;;;;;;;;6302558;28;19955;-92
2023/09/24 10:42:45;;;;;;;;;;;;;;;;;;6302637;28;19911;-92
2023/09/24 10:45:45;;;;;;;;;;;;;;;;;;6284013;28;19912;-92
2023/09/24 10:48:45;;;;;;;;;;;;;;;;;;6302438;28;19904;-92
2023/09/24 10:51:45;;;;;;;;;;;;;;;;;;6301696;28;19904;-91
2023/09/24 10:54:45;;;;;;;;;;;;;;;;;;6302372;28;19930;-92
2023/09/24 10:57:45;;;;;;;;;;;;;;;;;;6283943;28;19904;-86
2023/09/24 11:00:46;;;;;;;;;;;;;;;;;;6283639;28;19927;-86
2023/09/24 11:03:46;;;;;;;;;;;;;;;;;;6283614;28;19991;-86
2023/09/24 11:06:46;;;;;;;;;;;;;;;;;;6301648;28;19904;-87
2023/09/24 11:09:46;;;;;;;;;;;;;;;;;;6301614;28;19916;-87
2023/09/24 11:12:46;;;;;;;;;;;;;;;;;;6301337;28;19958;-87
2023/09/24 11:15:46;;;;;;;;;;;;;;;;;;6301128;28;19923;-85
2023/09/24 11:18:46;;;;;;;;;;;;;;;;;;6283223;28;19905;-86
2023/09/24 11:21:47;;;;;;;;;;;;;;;;;;6301398;28;19904;-86
2023/09/24 11:24:50;;;;;;;;;;;;;;;;;;6301609;28;19904;-85
2023/09/24 11:27:50;;;;;;;;;;;;;;;;;;6282032;28;20391;-85
2023/09/24 11:30:51;;;;;;;;;;;;;;;;;;6301269;28;19904;-85
2023/09/24 11:33:51;;;;;;;;;;;;;;;;;;6300735;28;19909;-85
2023/09/24 11:36:51;;;;;;;;;;;;;;;;;;6283323;28;19947;-87
2023/09/24 11:39:51;;;;;;;;;;;;;;;;;;6282984;28;19905;-85
2023/09/24 11:42:52;;;;;;;;;;;;;;;;;;6300488;28;20258;-86
2023/09/24 11:45:55;;;;;;;;;;;;;;;;;;6282962;28;19998;-85
2023/09/24 11:48:58;;;;;;;;;;;;;;;;;;6282549;28;19908;-86
2023/09/24 11:51:59;;;;;;;;;;;;;;;;;;6300464;28;19918;-86
2023/09/24 11:54:59;;;;;;;;;;;;;;;;;;6300573;28;19909;-86
2023/09/24 11:57:59;;;;;;;;;;;;;;;;;;6301254;28;19911;-85
2023/09/24 12:01:01;;;;;;;;;;;;;;;;;;6300065;28;19911;-86
2023/09/24 12:04:02;;;;;;;;;;;;;;;;;;6301214;28;19991;-86
2023/09/24 12:07:02;;;;;;;;;;;;;;;;;;6282355;28;20366;-91
2023/09/24 12:10:02;;;;;;;;;;;;;;;;;;6281902;28;19982;-91
2023/09/24 12:13:04;;;;;;;;;;;;;;;;;;6299890;28;19904;-91
2023/09/24 12:16:04;;;;;;;;;;;;;;;;;;6299947;28;19908;-91
2023/09/24 12:19:05;;;;;;;;;;;;;;;;;;6300640;28;19911;-91
2023/09/24 12:22:05;;;;;;;;;;;;;;;;;;6300261;28;19905;-90
2023/09/24 12:25:05;;;;;;;;;;;;;;;;;;6281979;28;19904;-91
2023/09/24 12:28:06;;;;;;;;;;;;;;;;;;6281924;28;19911;-92
2023/09/24 12:31:07;;;;;;;;;;;;;;;;;;6298705;28;19908;-92
2023/09/24 12:34:07;;;;;;;;;;;;;;;;;;6299900;28;20033;-93
2023/09/24 12:37:08;;;;;;;;;;;;;;;;;;6299453;28;19904;-92
2023/09/24 12:40:10;;;;;;;;;;;;;;;;;;6299641;28;20006;-92
2023/09/24 12:43:10;;;;;;;;;;;;;;;;;;6281583;28;19958;-92
2023/09/24 12:46:10;;;;;;;;;;;;;;;;;;6300014;28;19919;-93
2023/09/24 12:49:10;;;;;;;;;;;;;;;;;;6299187;28;20303;-93
2023/09/24 12:52:11;;;;;;;;;;;;;;;;;;6281106;28;19908;-92
2023/09/24 12:55:14;;;;;;;;;;;;;;;;;;6299028;28;19908;-91
2023/09/24 12:58:14;;;;;;;;;;;;;;;;;;6298839;28;20436;-92
2023/09/24 13:01:14;;;;;;;;;;;;;;;;;;6281843;28;19908;-91
2023/09/24 13:04:15;;;;;;;;;;;;;;;;;;6280843;28;19948;-92
2023/09/24 13:07:15;;;;;;;;;;;;;;;;;;6299387;28;19911;-91
2023/09/24 13:10:15;;;;;;;;;;;;;;;;;;6298615;28;19931;-92
2023/09/24 13:13:15;;;;;;;;;;;;;;;;;;6280596;28;19904;-94
2023/09/24 13:16:15;;;;;;;;;;;;;;;;;;6299265;28;20003;-86
2023/09/24 13:19:15;;;;;;;;;;;;;;;;;;6298055;28;19904;-86
2023/09/24 13:22:18;;;;;;;;;;;;;;;;;;6298711;28;19904;-85
2023/09/24 13:25:18;;;;;;;;;;;;;;;;;;6298177;28;19904;-86
2023/09/24 13:28:18;;;;;;;;;;;;;;;;;;6280476;28;19904;-86
2023/09/24 13:31:18;;;;;;;;;;;;;;;;;;6298132;28;20385;-86
2023/09/24 13:34:18;;;;;;;;;;;;;;;;;;6298408;28;19954;-86
2023/09/24 13:37:18;;;;;;;;;;;;;;;;;;6298022;28;19904;-86
2023/09/24 13:40:18;;;;;;;;;;;;;;;;;;6298035;28;19909;-86
2023/09/24 13:43:19;;;;;;;;;;;;;;;;;;6279718;28;19905;-86
2023/09/24 13:46:19;;;;;;;;;;;;;;;;;;6297977;28;19915;-86
2023/09/24 13:49:19;;;;;;;;;;;;;;;;;;6298102;28;19931;-86
2023/09/24 13:52:19;;;;;;;;;;;;;;;;;;6298183;28;19909;-86
2023/09/24 13:55:19;;;;;;;;;;;;;;;;;;6297773;28;19908;-86
2023/09/24 13:58:20;;;;;;;;;;;;;;;;;;6297782;28;20007;-86
2023/09/24 14:01:20;;;;;;;;;;;;;;;;;;6298392;28;19908;-86
2023/09/24 14:04:20;;;;;;;;;;;;;;;;;;6297964;28;19908;-86
2023/09/24 14:07:20;;;;;;;;;;;;;;;;;;6297814;28;19967;-85
2023/09/24 14:13:39;;;;;;;;;;;;;;;;;;6297591;28;19904;-86
2023/09/24 14:16:42;;;;;;;;;;;;;;;;;;6297501;28;20389;-86
2023/09/24 14:19:43;;;;;;;;;;;;;;;;;;6298212;28;19905;-86
2023/09/24 14:22:43;;;;;;;;;;;;;;;;;;6279529;28;19905;-86
2023/09/24 14:25:43;;;;;;;;;;;;;;;;;;6297784;28;20317;-86
2023/09/24 14:28:44;;;;;;;;;;;;;;;;;;6297571;28;19900;-85
2023/09/24 14:31:44;;;;;;;;;;;;;;;;;;6279559;28;20274;-85
2023/09/24 14:34:44;;;;;;;;;;;;;;;;;;6279681;28;19915;-86
2023/09/24 14:37:44;;;;;;;;;;;;;;;;;;6298278;28;19904;-92
2023/09/24 14:40:44;;;;;;;;;;;;;;;;;;6280742;28;19912;-92
2023/09/24 14:43:44;;;;;;;;;;;;;;;;;;6297551;28;19908;-93
2023/09/24 14:46:44;;;;;;;;;;;;;;;;;;6297514;28;20236;-92
2023/09/24 14:49:45;;;;;;;;;;;;;;;;;;6298604;28;19918;-92
2023/09/24 14:52:45;;;;;;;;;;;;;;;;;;6297479;28;20247;-92
2023/09/24 14:55:45;;;;;;;;;;;;;;;;;;6279194;28;20046;-92
2023/09/24 14:58:45;;;;;;;;;;;;;;;;;;6297271;28;19905;-91
2023/09/24 15:01:46;;;;;;;;;;;;;;;;;;6280551;28;19936;-92
2023/09/24 15:04:46;;;;;;;;;;;;;;;;;;6283886;28;19955;-91
2023/09/24 15:07:46;;;;;;;;;;;;;;;;;;6302432;28;19905;-93
2023/09/24 15:10:46;;;;;;;;;;;;;;;;;;6284235;28;19916;-91
2023/09/24 15:13:47;;;;;;;;;;;;;;;;;;6301859;28;19982;-92
2023/09/24 15:16:47;;;;;;;;;;;;;;;;;;6283682;28;19908;-92
2023/09/24 15:19:47;;;;;;;;;;;;;;;;;;6301903;28;19911;-91
2023/09/24 15:22:48;;;;;;;;;;;;;;;;;;6301527;28;19904;-92
2023/09/24 15:25:48;;;;;;;;;;;;;;;;;;6302723;28;20359;-93
2023/09/24 15:28:52;;;;;;;;;;;;;;;;;;6304441;28;19926;-91
2023/09/24 15:31:52;;;;;;;;;;;;;;;;;;6301906;28;19904;-91
2023/09/24 15:34:52;;;;;;;;;;;;;;;;;;6301795;28;19909;-92
2023/09/24 15:37:52;;;;;;;;;;;;;;;;;;6285471;28;19906;-92
2023/09/24 15:40:52;;;;;;;;;;;;;;;;;;6283397;28;20287;-92
2023/09/24 15:43:52;;;;;;;;;;;;;;;;;;6284895;28;19905;-93
2023/09/24 15:46:52;;;;;;;;;;;;;;;;;;6282790;28;19978;-85
2023/09/24 15:49:57;;;;;;;;;;;;;;;;;;6300352;28;19904;-85
2023/09/24 15:52:57;;;;;;;;;;;;;;;;;;6282948;28;19911;-85
2023/09/24 15:55:57;;;;;;;;;;;;;;;;;;6300705;28;19948;-84
2023/09/24 15:58:57;;;;;;;;;;;;;;;;;;6300415;28;19931;-85
2023/09/24 16:01:57;;;;;;;;;;;;;;;;;;6300322;28;19966;-85
2023/09/24 16:04:57;;;;;;;;;;;;;;;;;;6300985;28;19947;-85
2023/09/24 16:07:57;;;;;;;;;;;;;;;;;;6282335;28;19904;-85
2023/09/24 16:10:58;;;;;;;;;;;;;;;;;;6299961;28;19921;-85
2023/09/24 16:13:59;;;;;;;;;;;;;;;;;;6299609;28;19991;-85
2023/09/24 16:16:59;;;;;;;;;;;;;;;;;;6282222;28;19905;-85
2023/09/24 16:19:59;;;;;;;;;;;;;;;;;;6282037;28;19905;-85
2023/09/24 16:23:00;;;;;;;;;;;;;;;;;;6300348;28;19905;-85
2023/09/24 16:26:00;;;;;;;;;;;;;;;;;;6281455;28;19958;-85
2023/09/24 16:29:01;;;;;;;;;;;;;;;;;;6300364;28;19912;-86
2023/09/24 16:32:01;;;;;;;;;;;;;;;;;;6299960;28;19909;-85
2023/09/24 16:35:01;;;;;;;;;;;;;;;;;;6281756;28;19912;-85
2023/09/24 16:38:03;;;;;;;;;;;;;;;;;;6299192;28;19905;-85
2023/09/24 16:41:03;;;;;;;;;;;;;;;;;;6300146;28;19904;-86
2023/09/24 16:44:03;;;;;;;;;;;;;;;;;;6299842;28;19911;-85
2023/09/24 16:47:05;;;;;;;;;;;;;;;;;;6299128;28;19905;-85
2023/09/24 16:50:05;;;;;;;;;;;;;;;;;;6299670;28;19919;-85
2023/09/24 16:53:05;;;;;;;;;;;;;;;;;;6281772;28;20247;-84
2023/09/24 16:56:05;;;;;;;;;;;;;;;;;;6298977;28;20445;-85
2023/09/24 16:59:06;;;;;;;;;;;;;;;;;;6280707;28;19927;-87
2023/09/24 17:02:07;;;;;;;;;;;;;;;;;;6280788;28;19908;-86
2023/09/24 17:05:07;;;;;;;;;;;;;;;;;;6281180;28;19955;-87
2023/09/24 17:08:07;;;;;;;;;;;;;;;;;;6298236;28;20322;-86
2023/09/24 17:11:07;;;;;;;;;;;;;;;;;;6298791;28;19972;-88
2023/09/24 17:14:08;;;;;;;;;;;;;;;;;;6298884;28;19920;-87
2023/09/24 17:17:09;;;;;;;;;;;;;;;;;;6298704;28;19904;-88
2023/09/24 17:20:09;;;;;;;;;;;;;;;;;;6298180;28;19904;-88
2023/09/24 17:23:09;;;;;;;;;;;;;;;;;;6298445;28;19942;-88
2023/09/24 17:26:09;;;;;;;;;;;;;;;;;;6279633;28;19904;-88
2023/09/24 17:29:10;;;;;;;;;;;;;;;;;;6298823;28;19908;-88
2023/09/24 17:32:10;;;;;;;;;;;;;;;;;;6280293;28;20343;-88
2023/09/24 17:35:10;;;;;;;;;;;;;;;;;;6297988;28;19908;-87
2023/09/24 17:38:10;;;;;;;;;;;;;;;;;;6298530;28;20353;-87
2023/09/24 17:41:10;;;;;;;;;;;;;;;;;;6280470;28;19946;-88
2023/09/24 17:44:12;;;;;;;;;;;;;;;;;;6297959;28;19967;-87
2023/09/24 17:47:12;;;;;;;;;;;;;;;;;;6280165;28;19905;-87
2023/09/24 17:50:13;;;;;;;;;;;;;;;;;;6279696;28;19950;-88
2023/09/24 17:53:18;;;;;;;;;;;;;;;;;;6297652;28;19963;-88
2023/09/24 17:56:18;;;;;;;;;;;;;;;;;;6297703;28;20255;-87
2023/09/24 17:59:18;;;;;;;;;;;;;;;;;;6297633;28;19963;-87
2023/09/24 18:02:18;;;;;;;;;;;;;;;;;;6279601;28;19905;-87
2023/09/24 18:05:18;;;;;;;;;;;;;;;;;;6297552;28;20263;-87
2023/09/24 18:08:22;;;;;;;;;;;;;;;;;;6297899;28;19911;-87
2023/09/24 18:11:22;;;;;;;;;;;;;;;;;;6297793;28;19904;-88
2023/09/24 18:14:22;;;;;;;;;;;;;;;;;;6297286;28;19916;-87
2023/09/24 18:17:22;;;;;;;;;;;;;;;;;;6280618;28;19958;-87
2023/09/24 18:20:22;;;;;;;;;;;;;;;;;;6279338;28;20007;-87
2023/09/24 18:23:22;;;;;;;;;;;;;;;;;;6297155;28;19911;-87
2023/09/24 18:26:23;;;;;;;;;;;;;;;;;;6279182;28;19904;-87
2023/09/24 18:29:23;;;;;;;;;;;;;;;;;;6297470;28;20255;-87
2023/09/24 18:32:23;;;;;;;;;;;;;;;;;;6298191;28;19951;-87
2023/09/24 18:35:23;;;;;;;;;;;;;;;;;;6297461;28;19963;-87
2023/09/24 18:38:24;;;;;;;;;;;;;;;;;;6301576;28;19999;-87
2023/09/24 18:41:24;;;;;;;;;;;;;;;;;;6284182;28;19904;-87
2023/09/24 18:44:24;;;;;;;;;;;;;;;;;;6283574;28;19904;-88
2023/09/24 18:47:34;;;;;;;;;;;;;;;;;;6301596;28;20263;-87
2023/09/24 18:50:35;;;;;;;;;;;;;;;;;;6302077;28;20392;-87
2023/09/24 18:53:35;;;;;;;;;;;;;;;;;;6301426;28;19904;-88
2023/09/24 18:56:35;;;;;;;;;;;;;;;;;;6302118;28;19958;-87
2023/09/24 18:59:36;;;;;;;;;;;;;;;;;;6301692;28;19908;-88
2023/09/24 19:02:36;;;;;;;;;;;;;;;;;;6301251;28;19916;-88
2023/09/24 19:05:37;;;;;;;;;;;;;;;;;;6301350;28;19912;-88
2023/09/24 19:08:37;;;;;;;;;;;;;;;;;;6301271;28;20431;-88
2023/09/24 19:11:37;;;;;;;;;;;;;;;;;;6302035;28;19912;-88
2023/09/24 19:14:37;;;;;;;;;;;;;;;;;;6301513;28;19970;-88
2023/09/24 19:17:38;;;;;;;;;;;;;;;;;;6301130;28;19927;-88
2023/09/24 19:20:38;;;;;;;;;;;;;;;;;;6301116;28;19987;-88
2023/09/24 19:23:38;;;;;;;;;;;;;;;;;;6301089;28;19904;-88
2023/09/24 19:26:39;;;;;;;;;;;;;;;;;;6282969;28;20330;-88
2023/09/24 19:29:39;;;;;;;;;;;;;;;;;;6301703;28;20002;-88
2023/09/24 19:32:39;;;;;;;;;;;;;;;;;;6301114;28;19904;-88
2023/09/24 19:35:39;;;;;;;;;;;;;;;;;;6282759;28;19912;-88
2023/09/24 19:38:39;;;;;;;;;;;;;;;;;;6283050;28;19904;-88
2023/09/24 19:41:40;;;;;;;;;;;;;;;;;;6300685;28;19995;-89
2023/09/24 19:44:41;;;;;;;;;;;;;;;;;;6300434;28;20262;-89
2023/09/24 19:47:42;;;;;;;;;;;;;;;;;;6300442;28;19927;-88
2023/09/24 19:50:42;;;;;;;;;;;;;;;;;;6300378;28;19999;-88
2023/09/24 19:53:42;;;;;;;;;;;;;;;;;;6300279;28;19911;-87
2023/09/24 19:56:42;;;;;;;;;;;;;;;;;;6300024;28;19915;-88
2023/09/24 19:59:42;;;;;;;;;;;;;;;;;;6300154;28;19905;-87
2023/09/24 20:02:42;;;;;;;;;;;;;;;;;;6282164;28;19951;-88
2023/09/24 20:05:43;;;;;;;;;;;;;;;;;;6282024;28;19904;-88
2023/09/24 20:08:44;;;;;;;;;;;;;;;;;;6282539;28;19913;-88
2023/09/24 20:11:44;;;;;;;;;;;;;;;;;;6299760;28;20381;-87
2023/09/24 20:14:45;;;;;;;;;;;;;;;;;;6300426;28;19912;-87
2023/09/24 20:17:45;;;;;;;;;;;;;;;;;;6300312;28;19955;-88
2023/09/24 20:20:46;;;;;;;;;;;;;;;;;;6300303;28;20000;-88
2023/09/24 20:23:46;;;;;;;;;;;;;;;;;;6282635;28;20258;-87
2023/09/24 20:26:46;;;;;;;;;;;;;;;;;;6299865;28;19911;-87
2023/09/24 20:29:46;;;;;;;;;;;;;;;;;;6299794;28;19912;-87
2023/09/24 20:32:46;;;;;;;;;;;;;;;;;;6300132;28;19904;-87
2023/09/24 20:35:47;;;;;;;;;;;;;;;;;;6299178;28;20406;-87